sensor_id;sensor_type;location;lat;lon;timestamp;temperature;humidity
41547;DHT22;27271;45.412;10.852;2022-08-07T00:01:18;23.90;99.90
41547;DHT22;27271;45.412;10.852;2022-08-07T00:05:01;24.00;99.90
41547;DHT22;27271;45.412;10.852;2022-08-07T00:08:25;23.90;99.90
41547;DHT22;27271;45.412;10.852;2022-08-07T00:11:50;23.90;99.90
41547;DHT22;27271;45.412;10.852;2022-08-07T00:15:17;23.90;99.90
41547;DHT22;27271;45.412;10.852;2022-08-07T00:18:39;24.00;99.90
41547;DHT22;27271;45.412;10.852;2022-08-07T00:22:02;24.30;99.90
41547;DHT22;27271;45.412;10.852;2022-08-07T00:25:25;24.30;99.90
41547;DHT22;27271;45.412;10.852;2022-08-07T00:28:47;24.30;99.90
41547;DHT22;27271;45.412;10.852;2022-08-07T00:32:17;24.30;99.90
41547;DHT22;27271;45.412;10.852;2022-08-07T00:35:48;24.20;99.90
41547;DHT22;27271;45.412;10.852;2022-08-07T00:39:11;22.50;99.90
41547;DHT22;27271;45.412;10.852;2022-08-07T00:42:41;20.90;99.90
41547;DHT22;27271;45.412;10.852;2022-08-07T00:46:03;20.70;99.90
41547;DHT22;27271;45.412;10.852;2022-08-07T00:49:29;20.50;99.90
41547;DHT22;27271;45.412;10.852;2022-08-07T00:53:11;20.80;99.90
41547;DHT22;27271;45.412;10.852;2022-08-07T00:56:34;21.10;99.90
41547;DHT22;27271;45.412;10.852;2022-08-07T00:59:56;20.60;99.90
41547;DHT22;27271;45.412;10.852;2022-08-07T01:03:18;20.40;99.90
41547;DHT22;27271;45.412;10.852;2022-08-07T01:07:00;20.40;99.90
41547;DHT22;27271;45.412;10.852;2022-08-07T01:10:26;20.50;99.90
41547;DHT22;27271;45.412;10.852;2022-08-07T01:14:13;20.70;99.90
41547;DHT22;27271;45.412;10.852;2022-08-07T01:17:38;20.50;99.90
41547;DHT22;27271;45.412;10.852;2022-08-07T01:21:17;20.40;99.90
41547;DHT22;27271;45.412;10.852;2022-08-07T01:24:50;20.60;99.90
41547;DHT22;27271;45.412;10.852;2022-08-07T01:28:13;20.40;99.90
41547;DHT22;27271;45.412;10.852;2022-08-07T01:31:37;20.40;99.90
41547;DHT22;27271;45.412;10.852;2022-08-07T01:35:08;20.60;99.90
41547;DHT22;27271;45.412;10.852;2022-08-07T01:38:38;20.60;99.90
41547;DHT22;27271;45.412;10.852;2022-08-07T01:42:13;20.50;99.90
41547;DHT22;27271;45.412;10.852;2022-08-07T01:45:58;20.60;99.90
41547;DHT22;27271;45.412;10.852;2022-08-07T01:49:22;20.50;99.90
41547;DHT22;27271;45.412;10.852;2022-08-07T01:52:44;20.50;99.90
41547;DHT22;27271;45.412;10.852;2022-08-07T01:56:19;20.50;99.90
41547;DHT22;27271;45.412;10.852;2022-08-07T02:00:03;20.40;99.90
41547;DHT22;27271;45.412;10.852;2022-08-07T02:03:41;20.40;99.90
41547;DHT22;27271;45.412;10.852;2022-08-07T02:07:13;20.40;99.90
41547;DHT22;27271;45.412;10.852;2022-08-07T02:10:39;20.50;99.90
41547;DHT22;27271;45.412;10.852;2022-08-07T02:14:06;20.40;99.90
41547;DHT22;27271;45.412;10.852;2022-08-07T02:17:29;20.30;99.90
41547;DHT22;27271;45.412;10.852;2022-08-07T02:20:56;20.30;99.90
41547;DHT22;27271;45.412;10.852;2022-08-07T02:24:28;20.40;99.90
41547;DHT22;27271;45.412;10.852;2022-08-07T02:27:54;20.30;99.90
41547;DHT22;27271;45.412;10.852;2022-08-07T02:31:21;20.20;99.90
41547;DHT22;27271;45.412;10.852;2022-08-07T02:34:51;20.10;99.90
41547;DHT22;27271;45.412;10.852;2022-08-07T02:38:24;20.00;99.90
41547;DHT22;27271;45.412;10.852;2022-08-07T02:41:53;19.90;99.90
41547;DHT22;27271;45.412;10.852;2022-08-07T02:45:19;20.00;99.90
41547;DHT22;27271;45.412;10.852;2022-08-07T02:49:04;20.00;99.90
41547;DHT22;27271;45.412;10.852;2022-08-07T02:52:46;19.90;99.90
41547;DHT22;27271;45.412;10.852;2022-08-07T02:56:17;19.90;99.90
41547;DHT22;27271;45.412;10.852;2022-08-07T02:59:43;19.80;99.90
41547;DHT22;27271;45.412;10.852;2022-08-07T03:03:27;19.90;99.90
41547;DHT22;27271;45.412;10.852;2022-08-07T03:07:15;19.80;99.90
41547;DHT22;27271;45.412;10.852;2022-08-07T03:10:45;19.70;99.90
41547;DHT22;27271;45.412;10.852;2022-08-07T03:14:13;19.80;99.90
41547;DHT22;27271;45.412;10.852;2022-08-07T03:17:37;19.80;99.90
41547;DHT22;27271;45.412;10.852;2022-08-07T03:21:19;20.00;99.90
41547;DHT22;27271;45.412;10.852;2022-08-07T03:24:43;20.10;99.90
41547;DHT22;27271;45.412;10.852;2022-08-07T03:28:12;20.10;99.90
41547;DHT22;27271;45.412;10.852;2022-08-07T03:31:58;20.00;99.90
41547;DHT22;27271;45.412;10.852;2022-08-07T03:35:23;20.00;99.90
41547;DHT22;27271;45.412;10.852;2022-08-07T03:38:48;20.00;99.90
41547;DHT22;27271;45.412;10.852;2022-08-07T03:42:11;19.90;99.90
41547;DHT22;27271;45.412;10.852;2022-08-07T03:45:35;19.90;99.90
41547;DHT22;27271;45.412;10.852;2022-08-07T03:49:07;19.90;99.90
41547;DHT22;27271;45.412;10.852;2022-08-07T03:52:35;20.10;99.90
41547;DHT22;27271;45.412;10.852;2022-08-07T03:56:03;20.20;99.90
41547;DHT22;27271;45.412;10.852;2022-08-07T03:59:30;20.10;99.90
41547;DHT22;27271;45.412;10.852;2022-08-07T04:02:53;20.10;99.90
41547;DHT22;27271;45.412;10.852;2022-08-07T04:06:23;20.10;99.90
41547;DHT22;27271;45.412;10.852;2022-08-07T04:10:06;20.20;99.90
41547;DHT22;27271;45.412;10.852;2022-08-07T04:13:37;20.30;99.90
41547;DHT22;27271;45.412;10.852;2022-08-07T04:17:20;20.40;99.90
41547;DHT22;27271;45.412;10.852;2022-08-07T04:20:47;20.60;99.90
41547;DHT22;27271;45.412;10.852;2022-08-07T04:24:18;20.70;99.90
41547;DHT22;27271;45.412;10.852;2022-08-07T04:28:00;20.60;99.90
41547;DHT22;27271;45.412;10.852;2022-08-07T04:31:24;20.30;99.90
41547;DHT22;27271;45.412;10.852;2022-08-07T11:01:24;27.60;99.90
41547;DHT22;27271;45.412;10.852;2022-08-07T11:15:56;30.00;98.70
41547;DHT22;27271;45.412;10.852;2022-08-07T11:23:48;30.00;98.30
41547;DHT22;27271;45.412;10.852;2022-08-07T11:27:41;29.90;95.00
41547;DHT22;27271;45.412;10.852;2022-08-07T11:44:21;32.20;95.60
41547;DHT22;27271;45.412;10.852;2022-08-07T12:00:10;31.70;92.80
41547;DHT22;27271;45.412;10.852;2022-08-07T12:07:31;31.20;93.20
41547;DHT22;27271;45.412;10.852;2022-08-07T12:11:08;31.10;92.20
41547;DHT22;27271;45.412;10.852;2022-08-07T12:15:00;31.20;94.00
41547;DHT22;27271;45.412;10.852;2022-08-07T12:18:37;31.10;91.10
41547;DHT22;27271;45.412;10.852;2022-08-07T12:22:16;31.20;92.40
41547;DHT22;27271;45.412;10.852;2022-08-07T12:30:13;31.30;92.70
41547;DHT22;27271;45.412;10.852;2022-08-07T12:33:45;31.50;93.00
41547;DHT22;27271;45.412;10.852;2022-08-07T12:37:26;31.20;88.10
41547;DHT22;27271;45.412;10.852;2022-08-07T12:41:10;30.40;91.20
41547;DHT22;27271;45.412;10.852;2022-08-07T12:44:38;30.50;91.90
41547;DHT22;27271;45.412;10.852;2022-08-07T12:52:40;30.80;91.70
41547;DHT22;27271;45.412;10.852;2022-08-07T13:00:17;31.10;92.20
41547;DHT22;27271;45.412;10.852;2022-08-07T13:12:31;30.90;91.50
41547;DHT22;27271;45.412;10.852;2022-08-07T13:20:51;30.40;90.80
41547;DHT22;27271;45.412;10.852;2022-08-07T13:28:04;30.30;90.10
41547;DHT22;27271;45.412;10.852;2022-08-07T13:32:00;30.60;92.60
41547;DHT22;27271;45.412;10.852;2022-08-07T13:35:51;30.70;89.90
41547;DHT22;27271;45.412;10.852;2022-08-07T13:43:16;30.60;88.20
41547;DHT22;27271;45.412;10.852;2022-08-07T13:46:50;30.50;91.30
41547;DHT22;27271;45.412;10.852;2022-08-07T13:50:21;30.70;92.50
41547;DHT22;27271;45.412;10.852;2022-08-07T13:54:13;30.70;93.00
41547;DHT22;27271;45.412;10.852;2022-08-07T13:57:48;30.50;87.50
41547;DHT22;27271;45.412;10.852;2022-08-07T14:05:45;30.70;87.80
41547;DHT22;27271;45.412;10.852;2022-08-07T14:09:28;30.70;89.90
41547;DHT22;27271;45.412;10.852;2022-08-07T14:13:22;30.60;90.30
41547;DHT22;27271;45.412;10.852;2022-08-07T14:16:57;30.10;90.00
41547;DHT22;27271;45.412;10.852;2022-08-07T14:20:48;30.20;90.00
41547;DHT22;27271;45.412;10.852;2022-08-07T14:24:33;30.40;90.60
41547;DHT22;27271;45.412;10.852;2022-08-07T14:28:07;30.80;89.60
41547;DHT22;27271;45.412;10.852;2022-08-07T14:31:51;30.90;90.30
41547;DHT22;27271;45.412;10.852;2022-08-07T14:35:37;31.00;89.70
41547;DHT22;27271;45.412;10.852;2022-08-07T14:39:15;30.90;90.20
41547;DHT22;27271;45.412;10.852;2022-08-07T14:43:11;30.70;88.30
41547;DHT22;27271;45.412;10.852;2022-08-07T14:47:03;30.60;87.30
41547;DHT22;27271;45.412;10.852;2022-08-07T14:50:49;30.50;87.10
41547;DHT22;27271;45.412;10.852;2022-08-07T14:54:30;30.30;87.40
41547;DHT22;27271;45.412;10.852;2022-08-07T14:58:15;30.40;88.70
41547;DHT22;27271;45.412;10.852;2022-08-07T15:01:46;30.60;88.30
41547;DHT22;27271;45.412;10.852;2022-08-07T15:05:17;30.60;88.90
41547;DHT22;27271;45.412;10.852;2022-08-07T15:08:48;30.30;90.40
41547;DHT22;27271;45.412;10.852;2022-08-07T15:12:36;30.40;87.30
41547;DHT22;27271;45.412;10.852;2022-08-07T15:16:06;30.50;89.50
41547;DHT22;27271;45.412;10.852;2022-08-07T15:19:37;30.30;90.10
41547;DHT22;27271;45.412;10.852;2022-08-07T15:23:58;30.40;90.30
41547;DHT22;27271;45.412;10.852;2022-08-07T15:27:53;30.50;88.70
41547;DHT22;27271;45.412;10.852;2022-08-07T15:31:42;30.30;90.10
41547;DHT22;27271;45.412;10.852;2022-08-07T15:35:34;30.50;90.50
41547;DHT22;27271;45.412;10.852;2022-08-07T15:39:28;30.40;89.70
41547;DHT22;27271;45.412;10.852;2022-08-07T15:43:16;30.50;87.70
41547;DHT22;27271;45.412;10.852;2022-08-07T15:47:03;30.50;87.20
41547;DHT22;27271;45.412;10.852;2022-08-07T15:50:40;30.40;88.00
41547;DHT22;27271;45.412;10.852;2022-08-07T15:54:45;30.30;88.70
41547;DHT22;27271;45.412;10.852;2022-08-07T15:58:14;30.40;87.50
41547;DHT22;27271;45.412;10.852;2022-08-07T16:01:51;30.30;87.30
41547;DHT22;27271;45.412;10.852;2022-08-07T16:05:25;30.40;88.70
41547;DHT22;27271;45.412;10.852;2022-08-07T16:09:00;30.10;88.30
41547;DHT22;27271;45.412;10.852;2022-08-07T16:12:56;29.90;87.90
41547;DHT22;27271;45.412;10.852;2022-08-07T16:17:25;29.80;90.60
41547;DHT22;27271;45.412;10.852;2022-08-07T16:34:06;28.50;92.20
41547;DHT22;27271;45.412;10.852;2022-08-07T16:42:52;29.10;91.20
41547;DHT22;27271;45.412;10.852;2022-08-07T16:55:05;29.10;92.10
41547;DHT22;27271;45.412;10.852;2022-08-07T16:59:49;29.00;91.90
41547;DHT22;27271;45.412;10.852;2022-08-07T17:11:59;28.70;93.60
41547;DHT22;27271;45.412;10.852;2022-08-07T17:16:33;28.80;92.40
41547;DHT22;27271;45.412;10.852;2022-08-07T17:24:26;29.00;92.70
41547;DHT22;27271;45.412;10.852;2022-08-07T17:28:10;28.60;93.30
41547;DHT22;27271;45.412;10.852;2022-08-07T17:32:16;28.30;95.10
41547;DHT22;27271;45.412;10.852;2022-08-07T17:43:36;27.60;96.20
41547;DHT22;27271;45.412;10.852;2022-08-07T17:51:08;27.10;96.30
41547;DHT22;27271;45.412;10.852;2022-08-07T17:54:47;27.20;96.00
41547;DHT22;27271;45.412;10.852;2022-08-07T17:58:34;27.00;97.70
41547;DHT22;27271;45.412;10.852;2022-08-07T18:02:14;27.00;97.90
41547;DHT22;27271;45.412;10.852;2022-08-07T18:06:03;26.80;98.80
41547;DHT22;27271;45.412;10.852;2022-08-07T18:21:22;25.80;99.90
41547;DHT22;27271;45.412;10.852;2022-08-07T18:25:29;25.60;99.90
41547;DHT22;27271;45.412;10.852;2022-08-07T18:29:06;25.60;99.90
41547;DHT22;27271;45.412;10.852;2022-08-07T18:37:05;25.40;99.90
41547;DHT22;27271;45.412;10.852;2022-08-07T18:56:47;24.90;99.90
41547;DHT22;27271;45.412;10.852;2022-08-07T19:00:50;24.80;99.90
41547;DHT22;27271;45.412;10.852;2022-08-07T19:08:24;24.70;99.90
41547;DHT22;27271;45.412;10.852;2022-08-07T19:16:07;24.60;99.90
41547;DHT22;27271;45.412;10.852;2022-08-07T19:20:05;24.70;99.90
41547;DHT22;27271;45.412;10.852;2022-08-07T19:23:54;24.60;99.90
41547;DHT22;27271;45.412;10.852;2022-08-07T19:27:23;24.30;99.90
41547;DHT22;27271;45.412;10.852;2022-08-07T19:31:11;24.20;99.90
41547;DHT22;27271;45.412;10.852;2022-08-07T19:34:58;24.20;99.90
41547;DHT22;27271;45.412;10.852;2022-08-07T19:38:26;24.20;99.90
41547;DHT22;27271;45.412;10.852;2022-08-07T19:41:53;24.30;99.90
41547;DHT22;27271;45.412;10.852;2022-08-07T19:45:36;24.30;99.90
41547;DHT22;27271;45.412;10.852;2022-08-07T19:49:22;24.20;99.90
41547;DHT22;27271;45.412;10.852;2022-08-07T19:53:12;24.30;99.90
41547;DHT22;27271;45.412;10.852;2022-08-07T19:57:00;24.30;99.90
41547;DHT22;27271;45.412;10.852;2022-08-07T20:00:46;24.20;99.90
41547;DHT22;27271;45.412;10.852;2022-08-07T20:04:18;24.20;99.90
41547;DHT22;27271;45.412;10.852;2022-08-07T20:07:58;24.10;99.90
41547;DHT22;27271;45.412;10.852;2022-08-07T20:11:21;23.90;99.90
41547;DHT22;27271;45.412;10.852;2022-08-07T20:15:07;23.90;99.90
41547;DHT22;27271;45.412;10.852;2022-08-07T20:18:43;23.90;99.90
41547;DHT22;27271;45.412;10.852;2022-08-07T20:22:09;23.70;99.90
41547;DHT22;27271;45.412;10.852;2022-08-07T20:25:37;23.90;99.90
41547;DHT22;27271;45.412;10.852;2022-08-07T20:29:13;23.80;99.90
41547;DHT22;27271;45.412;10.852;2022-08-07T20:32:59;23.60;99.90
41547;DHT22;27271;45.412;10.852;2022-08-07T20:36:24;23.40;99.90
41547;DHT22;27271;45.412;10.852;2022-08-07T20:39:49;23.20;99.90
41547;DHT22;27271;45.412;10.852;2022-08-07T20:43:29;23.20;99.90
41547;DHT22;27271;45.412;10.852;2022-08-07T20:46:55;23.10;99.90
41547;DHT22;27271;45.412;10.852;2022-08-07T20:50:27;23.10;99.90
41547;DHT22;27271;45.412;10.852;2022-08-07T20:53:51;23.00;99.90
41547;DHT22;27271;45.412;10.852;2022-08-07T20:57:36;22.90;99.90
41547;DHT22;27271;45.412;10.852;2022-08-07T21:01:21;22.80;99.90
41547;DHT22;27271;45.412;10.852;2022-08-07T21:04:44;22.80;99.90
41547;DHT22;27271;45.412;10.852;2022-08-07T21:08:12;22.70;99.90
41547;DHT22;27271;45.412;10.852;2022-08-07T21:11:37;22.60;99.90
41547;DHT22;27271;45.412;10.852;2022-08-07T21:15:13;22.60;99.90
41547;DHT22;27271;45.412;10.852;2022-08-07T21:18:40;22.60;99.90
41547;DHT22;27271;45.412;10.852;2022-08-07T21:22:07;22.50;99.90
41547;DHT22;27271;45.412;10.852;2022-08-07T21:29:45;22.40;99.90
41547;DHT22;27271;45.412;10.852;2022-08-07T21:33:20;22.40;99.90
41547;DHT22;27271;45.412;10.852;2022-08-07T21:37:02;22.40;99.90
41547;DHT22;27271;45.412;10.852;2022-08-07T21:40:44;22.30;99.90
41547;DHT22;27271;45.412;10.852;2022-08-07T21:48:34;22.30;99.90
41547;DHT22;27271;45.412;10.852;2022-08-07T21:52:12;22.30;99.90
41547;DHT22;27271;45.412;10.852;2022-08-07T21:56:36;22.30;99.90
41547;DHT22;27271;45.412;10.852;2022-08-07T22:00:13;22.20;99.90
41547;DHT22;27271;45.412;10.852;2022-08-07T22:03:52;22.30;99.90
41547;DHT22;27271;45.412;10.852;2022-08-07T22:07:26;22.30;99.90
41547;DHT22;27271;45.412;10.852;2022-08-07T22:11:09;22.30;99.90
41547;DHT22;27271;45.412;10.852;2022-08-07T22:14:46;22.30;99.90
41547;DHT22;27271;45.412;10.852;2022-08-07T22:18:24;22.40;99.90
41547;DHT22;27271;45.412;10.852;2022-08-07T22:22:07;22.40;99.90
41547;DHT22;27271;45.412;10.852;2022-08-07T22:26:10;22.40;99.90
41547;DHT22;27271;45.412;10.852;2022-08-07T22:29:36;22.50;99.90
41547;DHT22;27271;45.412;10.852;2022-08-07T22:33:12;22.60;99.90
41547;DHT22;27271;45.412;10.852;2022-08-07T22:44:16;22.90;99.90
41547;DHT22;27271;45.412;10.852;2022-08-07T23:06:34;22.50;99.90
41547;DHT22;27271;45.412;10.852;2022-08-07T23:21:26;22.40;99.90
41547;DHT22;27271;45.412;10.852;2022-08-07T23:45:42;21.90;99.90
